Moorhead State University, Minnesota
Current Conditions -  °F | °C
As of 3:53 PM on Monday 26 Jan 2015 (Local Time) from KFAR Reporting Station
Overcast Overcast  
Wind Chill: 27°   Ceiling: 2000
Heat Index: 36°   Visibility: 10mi
Dew Point: 29°   Wind: 14mph
Humidity: 76%   Direction: 10°N
Pressure: 29.91"   Gusts: NA
Location:  46.8656°N, 96.7581°W
Report Text: KFAR 262153Z 01012KT 10SM OVC020 02/M02 A2991 RMK AO2 SLP139 T00221017
Loading
Personal Weather Stations






























Interactive Weather Map New forecast layout! Learn more

10-Day Weather Forecast

Advertisements
Track Severe Weather on mobile